Time;durP1;ratioP1;P1;durP2;ratioP2;P2;SDS_P1;SDS_P2;PMS_P1;PMS_P2;Temp;Humidity;BMP_temperature;BMP_pressure;BME280_temperature;BME280_humidity;BME280_pressure;Samples;Min_cycle;Max_cycle;Signal;HPM_P1;HPM_P2
2022/10/28 00:00:50;;;;;;;;;;;25.70;69.00;;;;;;5034490;28;20363;-69
2022/10/28 00:03:17;;;;;;;;;;;26.10;69.50;;;;;;5035045;28;19923;-72
2022/10/28 00:05:44;;;;;;;;;;;26.00;68.10;;;;;;5034132;28;19975;-74
2022/10/28 00:08:11;;;;;;;;;;;26.30;69.00;;;;;;5037966;28;20303;-69
2022/10/28 00:10:38;;;;;;;;;;;26.10;68.50;;;;;;5053081;28;19921;-69
2022/10/28 00:13:04;;;;;;;;;;;26.30;70.30;;;;;;5052970;28;19977;-69
2022/10/28 00:15:33;;;;;;;;;;;26.30;68.30;;;;;;5034862;28;19920;-70
2022/10/28 00:18:00;;;;;;;;;;;26.40;68.60;;;;;;5034181;28;19920;-70
2022/10/28 00:20:26;;;;;;;;;;;26.10;66.70;;;;;;5038750;28;20282;-70
2022/10/28 00:22:53;;;;;;;;;;;25.80;69.10;;;;;;5053724;28;19913;-72
2022/10/28 00:25:23;;;;;;;;;;;25.90;68.60;;;;;;5041709;28;19912;-72
2022/10/28 00:27:51;;;;;;;;;;;25.90;66.80;;;;;;5052408;28;20371;-70
2022/10/28 00:30:17;;;;;;;;;;;25.70;66.10;;;;;;5052330;28;19960;-71
2022/10/28 00:32:44;;;;;;;;;;;26.00;70.70;;;;;;5052652;28;19917;-70
2022/10/28 00:35:11;;;;;;;;;;;26.40;67.60;;;;;;5051606;28;19952;-70
2022/10/28 00:37:37;;;;;;;;;;;26.80;68.30;;;;;;5041895;28;19908;-71
2022/10/28 00:40:04;;;;;;;;;;;27.20;68.50;;;;;;5037289;28;20272;-71
2022/10/28 00:42:31;;;;;;;;;;;27.40;67.50;;;;;;5040898;28;19916;-69
2022/10/28 00:44:59;;;;;;;;;;;27.10;63.90;;;;;;5038522;28;19948;-71
2022/10/28 00:47:51;;;;;;;;;;;26.60;65.90;;;;;;5033275;28;19909;-71
2022/10/28 00:50:27;;;;;;;;;;;26.40;67.90;;;;;;5034353;28;19975;-70
2022/10/28 00:52:56;;;;;;;;;;;26.70;67.50;;;;;;5033174;28;19909;-70
2022/10/28 00:55:23;;;;;;;;;;;27.10;68.70;;;;;;5038434;28;20430;-70
2022/10/28 00:57:50;;;;;;;;;;;27.10;67.00;;;;;;5052769;28;19936;-72
2022/10/28 01:00:17;;;;;;;;;;;27.30;69.10;;;;;;5049901;28;19923;-71
2022/10/28 01:02:45;;;;;;;;;;;27.60;68.60;;;;;;5053051;28;19916;-70
2022/10/28 01:05:13;;;;;;;;;;;27.80;67.90;;;;;;5036133;28;20012;-70
2022/10/28 01:07:39;;;;;;;;;;;28.00;65.10;;;;;;5032996;28;19909;-71
2022/10/28 01:10:07;;;;;;;;;;;28.00;64.90;;;;;;5033443;28;19929;-73
2022/10/28 01:12:43;;;;;;;;;;;27.80;65.70;;;;;;5032895;28;19909;-69
2022/10/28 01:15:39;;;;;;;;;;;27.80;65.60;;;;;;5033776;28;19920;-69
2022/10/28 01:18:08;;;;;;;;;;;27.90;65.90;;;;;;4998047;28;19920;-69
2022/10/28 01:20:38;;;;;;;;;;;27.90;62.80;;;;;;5052327;28;19909;-69
2022/10/28 01:23:10;;;;;;;;;;;27.00;63.70;;;;;;5052594;28;19909;-70
2022/10/28 01:25:55;;;;;;;;;;;27.10;64.90;;;;;;5052089;28;19924;-69
2022/10/28 01:28:22;;;;;;;;;;;27.50;66.40;;;;;;5051546;28;19916;-69
2022/10/28 01:31:06;;;;;;;;;;;27.50;65.50;;;;;;5051431;28;19936;-70
2022/10/28 01:33:33;;;;;;;;;;;27.70;64.40;;;;;;5046212;28;20378;-71
2022/10/28 01:36:19;;;;;;;;;;;28.00;64.80;;;;;;5044005;28;19913;-71
2022/10/28 01:38:52;;;;;;;;;;;28.30;64.20;;;;;;5047327;28;20008;-71
2022/10/28 01:41:28;;;;;;;;;;;28.30;64.50;;;;;;5032573;28;19916;-71
2022/10/28 01:43:54;;;;;;;;;;;28.10;63.40;;;;;;5033036;28;19917;-69
2022/10/28 01:46:34;;;;;;;;;;;28.10;63.50;;;;;;5032346;28;19913;-73
2022/10/28 01:49:27;;;;;;;;;;;28.30;64.50;;;;;;5033580;28;19917;-70
2022/10/28 01:51:57;;;;;;;;;;;28.20;64.30;;;;;;5047432;28;19994;-71
2022/10/28 01:54:25;;;;;;;;;;;28.40;64.30;;;;;;5033153;28;20023;-71
2022/10/28 01:56:53;;;;;;;;;;;28.60;63.30;;;;;;5051254;28;19913;-70
2022/10/28 01:59:21;;;;;;;;;;;28.40;63.00;;;;;;5050442;28;19913;-71
2022/10/28 02:01:48;;;;;;;;;;;28.30;62.90;;;;;;5051097;28;20677;-71
2022/10/28 02:04:15;;;;;;;;;;;28.40;62.00;;;;;;5042401;28;19959;-72
2022/10/28 02:06:43;;;;;;;;;;;28.00;60.90;;;;;;5032911;28;19909;-71
2022/10/28 02:09:25;;;;;;;;;;;27.70;62.00;;;;;;5032869;28;19924;-70
2022/10/28 02:12:09;;;;;;;;;;;27.40;60.80;;;;;;5031829;28;20276;-69
2022/10/28 02:14:54;;;;;;;;;;;27.00;61.90;;;;;;5032973;28;19924;-68
2022/10/28 02:17:31;;;;;;;;;;;26.70;62.10;;;;;;5031961;28;19916;-71
2022/10/28 02:20:00;;;;;;;;;;;26.80;62.80;;;;;;5047051;28;20286;-70
2022/10/28 02:22:36;;;;;;;;;;;26.90;63.00;;;;;;5051631;28;20067;-70
2022/10/28 02:25:02;;;;;;;;;;;27.20;63.30;;;;;;5048142;28;19913;-70
2022/10/28 02:27:37;;;;;;;;;;;27.50;64.20;;;;;;5051933;28;20011;-71
2022/10/28 02:30:06;;;;;;;;;;;27.80;63.80;;;;;;5035938;28;19921;-73
2022/10/28 02:32:37;;;;;;;;;;;28.20;62.60;;;;;;5032145;28;20386;-72
2022/10/28 02:35:05;;;;;;;;;;;28.50;64.40;;;;;;5039720;28;19913;-70
2022/10/28 02:37:33;;;;;;;;;;;28.50;62.60;;;;;;5031839;28;20334;-71
2022/10/28 02:40:01;;;;;;;;;;;28.60;61.20;;;;;;5032211;28;19913;-70
2022/10/28 02:42:38;;;;;;;;;;;28.70;63.10;;;;;;5047235;28;20038;-71
2022/10/28 02:45:09;;;;;;;;;;;28.70;62.40;;;;;;5036186;28;19947;-72
2022/10/28 02:47:38;;;;;;;;;;;29.00;63.00;;;;;;5031880;28;19963;-68
2022/10/28 02:50:09;;;;;;;;;;;28.80;61.00;;;;;;5032329;28;20258;-69
2022/10/28 02:52:36;;;;;;;;;;;28.70;61.50;;;;;;5032046;28;19956;-70
2022/10/28 02:55:04;;;;;;;;;;;28.00;61.60;;;;;;5032725;28;20352;-70
2022/10/28 02:57:33;;;;;;;;;;;27.60;62.10;;;;;;5043886;28;20302;-70
2022/10/28 03:00:01;;;;;;;;;;;27.00;63.10;;;;;;5036357;28;20008;-71
2022/10/28 03:02:27;;;;;;;;;;;26.50;62.30;;;;;;5051017;28;20378;-70
2022/10/28 03:04:54;;;;;;;;;;;26.70;65.00;;;;;;5040941;28;19924;-70
2022/10/28 03:07:21;;;;;;;;;;;27.10;63.60;;;;;;5035181;28;19913;-70
2022/10/28 03:09:47;;;;;;;;;;;26.80;63.40;;;;;;5035658;28;19939;-70
2022/10/28 03:12:14;;;;;;;;;;;27.20;63.90;;;;;;5036751;28;19909;-69
2022/10/28 03:14:41;;;;;;;;;;;27.70;65.80;;;;;;5043462;28;19952;-70
2022/10/28 03:17:08;;;;;;;;;;;27.00;61.60;;;;;;5054746;28;19913;-69
2022/10/28 03:19:34;;;;;;;;;;;26.40;62.70;;;;;;5043359;28;19959;-69
2022/10/28 03:22:01;;;;;;;;;;;26.20;64.50;;;;;;5034730;28;20327;-69
2022/10/28 03:24:27;;;;;;;;;;;26.90;64.50;;;;;;5035774;28;19948;-69
2022/10/28 03:26:54;;;;;;;;;;;27.20;61.40;;;;;;5034597;28;19921;-69
2022/10/28 03:29:21;;;;;;;;;;;27.50;62.00;;;;;;5042358;28;19939;-70
2022/10/28 03:31:47;;;;;;;;;;;27.90;62.20;;;;;;5036339;28;19909;-69
2022/10/28 03:34:14;;;;;;;;;;;28.20;63.30;;;;;;5045672;28;19917;-69
2022/10/28 03:36:41;;;;;;;;;;;28.40;61.70;;;;;;5035279;28;19910;-69
2022/10/28 03:39:07;;;;;;;;;;;28.40;61.60;;;;;;5053286;28;19913;-70
2022/10/28 03:41:34;;;;;;;;;;;28.10;61.80;;;;;;5034512;28;20330;-71
2022/10/28 03:44:01;;;;;;;;;;;27.90;59.40;;;;;;5035311;28;19920;-71
2022/10/28 03:46:27;;;;;;;;;;;27.90;61.30;;;;;;5034452;28;20387;-71
2022/10/28 03:48:54;;;;;;;;;;;27.80;61.50;;;;;;5037673;28;19913;-70
2022/10/28 03:51:21;;;;;;;;;;;27.50;59.40;;;;;;5054351;28;20367;-70
2022/10/28 03:53:47;;;;;;;;;;;27.20;62.90;;;;;;5048987;28;19919;-70
2022/10/28 03:56:14;;;;;;;;;;;26.90;61.70;;;;;;5034408;28;19968;-70
2022/10/28 03:58:41;;;;;;;;;;;26.70;61.30;;;;;;5035508;28;19924;-69
2022/10/28 04:01:07;;;;;;;;;;;26.80;61.50;;;;;;5043223;28;19913;-70
2022/10/28 04:03:34;;;;;;;;;;;26.70;62.80;;;;;;5050049;28;19924;-69
2022/10/28 04:06:01;;;;;;;;;;;26.70;63.10;;;;;;5037375;28;19935;-70
2022/10/28 04:08:27;;;;;;;;;;;26.50;62.60;;;;;;5051576;28;19920;-69
2022/10/28 04:10:54;;;;;;;;;;;26.60;63.10;;;;;;5033908;28;19920;-74
2022/10/28 04:13:20;;;;;;;;;;;26.60;62.80;;;;;;5034393;28;20004;-75
2022/10/28 04:15:47;;;;;;;;;;;26.40;61.90;;;;;;5033734;28;20295;-77
2022/10/28 04:18:14;;;;;;;;;;;26.30;61.70;;;;;;5051125;28;20375;-76
2022/10/28 04:20:40;;;;;;;;;;;26.10;61.80;;;;;;5038021;28;19913;-77
2022/10/28 04:23:08;;;;;;;;;;;26.00;62.80;;;;;;5052669;28;20015;-75
2022/10/28 04:25:35;;;;;;;;;;;26.10;62.00;;;;;;5034193;28;19992;-75
2022/10/28 04:28:01;;;;;;;;;;;26.20;62.00;;;;;;5033478;28;19916;-76
2022/10/28 04:30:28;;;;;;;;;;;26.30;62.30;;;;;;5034412;28;19925;-75
2022/10/28 04:32:54;;;;;;;;;;;26.60;62.60;;;;;;5040824;28;19912;-71
2022/10/28 04:35:21;;;;;;;;;;;26.70;62.40;;;;;;5052491;28;19912;-78
2022/10/28 04:37:48;;;;;;;;;;;26.50;61.50;;;;;;5052078;28;20062;-75
2022/10/28 04:40:14;;;;;;;;;;;26.30;62.90;;;;;;5041524;28;19913;-76
2022/10/28 04:42:41;;;;;;;;;;;26.20;62.30;;;;;;5053239;28;20330;-76
2022/10/28 04:45:08;;;;;;;;;;;26.40;64.50;;;;;;5036972;28;20360;-76
2022/10/28 04:47:35;;;;;;;;;;;26.60;62.90;;;;;;5033342;28;20343;-75
2022/10/28 04:50:01;;;;;;;;;;;26.70;62.30;;;;;;5048299;28;19921;-76
2022/10/28 04:52:28;;;;;;;;;;;26.50;62.00;;;;;;5053255;28;19912;-76
2022/10/28 04:54:55;;;;;;;;;;;26.30;61.70;;;;;;5038590;28;19913;-76
2022/10/28 04:57:21;;;;;;;;;;;26.40;62.60;;;;;;5039612;28;19909;-73
2022/10/28 04:59:48;;;;;;;;;;;26.50;63.10;;;;;;5039468;28;19959;-76
2022/10/28 05:02:15;;;;;;;;;;;26.30;61.80;;;;;;5033192;28;19996;-79
2022/10/28 05:04:41;;;;;;;;;;;26.10;62.50;;;;;;5034070;28;19959;-79
2022/10/28 05:07:08;;;;;;;;;;;25.90;62.40;;;;;;5033125;28;19916;-78
2022/10/28 05:09:35;;;;;;;;;;;25.70;62.20;;;;;;5033625;28;20403;-77
2022/10/28 05:12:02;;;;;;;;;;;25.70;63.60;;;;;;5036934;28;19912;-77
2022/10/28 05:14:28;;;;;;;;;;;25.70;62.70;;;;;;5049594;28;19917;-79
2022/10/28 05:16:55;;;;;;;;;;;25.80;61.60;;;;;;5051930;28;20382;-77
2022/10/28 05:19:21;;;;;;;;;;;25.80;62.00;;;;;;5042426;28;19916;-78
2022/10/28 05:21:48;;;;;;;;;;;25.60;62.00;;;;;;5045087;28;20371;-71
2022/10/28 05:24:15;;;;;;;;;;;25.60;62.50;;;;;;5042503;28;20003;-76
2022/10/28 05:26:41;;;;;;;;;;;25.80;62.70;;;;;;5051379;28;19974;-78
2022/10/28 05:29:08;;;;;;;;;;;25.90;61.40;;;;;;5044522;28;19928;-76
2022/10/28 05:31:35;;;;;;;;;;;25.90;61.70;;;;;;5040874;28;19909;-78
2022/10/28 05:34:01;;;;;;;;;;;25.80;61.30;;;;;;5045494;28;19914;-76
2022/10/28 05:36:28;;;;;;;;;;;25.70;61.10;;;;;;5036277;28;19913;-76
2022/10/28 05:38:55;;;;;;;;;;;25.30;61.80;;;;;;5033134;28;19936;-74
2022/10/28 05:41:21;;;;;;;;;;;25.10;61.80;;;;;;5052349;28;19948;-75
2022/10/28 05:43:48;;;;;;;;;;;25.10;62.30;;;;;;5046774;28;19913;-77
2022/10/28 05:46:15;;;;;;;;;;;25.20;62.00;;;;;;5040900;28;19999;-77
2022/10/28 05:48:41;;;;;;;;;;;25.10;61.80;;;;;;5047013;28;19924;-75
2022/10/28 05:51:08;;;;;;;;;;;25.00;62.40;;;;;;5039332;28;19916;-79
2022/10/28 05:53:35;;;;;;;;;;;24.90;62.20;;;;;;5047995;28;20004;-76
2022/10/28 05:56:01;;;;;;;;;;;24.90;63.10;;;;;;5045909;28;20008;-73
2022/10/28 05:58:28;;;;;;;;;;;24.90;62.90;;;;;;5049730;28;19940;-77
2022/10/28 06:00:54;;;;;;;;;;;24.90;63.00;;;;;;5032181;28;19916;-78
2022/10/28 06:03:21;;;;;;;;;;;24.90;64.30;;;;;;5033050;28;19910;-77
2022/10/28 06:05:48;;;;;;;;;;;24.70;62.40;;;;;;5042008;28;19920;-75
2022/10/28 06:08:14;;;;;;;;;;;24.60;62.60;;;;;;5050347;28;20007;-72
2022/10/28 06:10:41;;;;;;;;;;;24.50;63.80;;;;;;5032145;28;19939;-76
2022/10/28 06:13:08;;;;;;;;;;;24.60;63.90;;;;;;5032039;28;20016;-74
2022/10/28 06:15:35;;;;;;;;;;;24.60;63.70;;;;;;5034592;28;20360;-78
2022/10/28 06:18:01;;;;;;;;;;;24.60;64.40;;;;;;5051845;28;19996;-77
2022/10/28 06:20:28;;;;;;;;;;;24.60;63.70;;;;;;5035593;28;20270;-78
2022/10/28 06:22:56;;;;;;;;;;;24.40;64.00;;;;;;5051557;28;19909;-78
2022/10/28 06:25:23;;;;;;;;;;;24.30;64.00;;;;;;5050655;28;19916;-77
2022/10/28 06:27:53;;;;;;;;;;;24.10;64.10;;;;;;5051774;28;20405;-77
2022/10/28 06:30:21;;;;;;;;;;;24.00;63.20;;;;;;5050451;28;19927;-76
2022/10/28 06:32:47;;;;;;;;;;;23.90;63.30;;;;;;5052018;28;20287;-77
2022/10/28 06:35:14;;;;;;;;;;;23.90;63.10;;;;;;5041905;28;19917;-74
2022/10/28 06:37:41;;;;;;;;;;;23.90;63.30;;;;;;5043065;28;19917;-77
2022/10/28 06:40:08;;;;;;;;;;;23.80;63.60;;;;;;5052126;28;20008;-76
2022/10/28 06:42:34;;;;;;;;;;;23.80;63.70;;;;;;5055656;28;19919;-75
2022/10/28 06:45:01;;;;;;;;;;;23.80;63.80;;;;;;5040368;28;20007;-78
2022/10/28 06:47:28;;;;;;;;;;;23.80;64.50;;;;;;5035563;28;19913;-77
2022/10/28 06:49:54;;;;;;;;;;;23.70;63.70;;;;;;5036567;28;19986;-77
2022/10/28 06:52:21;;;;;;;;;;;23.70;64.10;;;;;;5054378;28;19952;-78
2022/10/28 06:54:48;;;;;;;;;;;23.70;63.90;;;;;;5054284;28;19913;-76
2022/10/28 06:57:14;;;;;;;;;;;23.70;63.80;;;;;;5045150;28;19913;-75
2022/10/28 06:59:41;;;;;;;;;;;23.70;64.00;;;;;;5036152;28;20315;-77
2022/10/28 07:02:09;;;;;;;;;;;23.70;64.00;;;;;;5049854;28;20004;-73
2022/10/28 07:04:36;;;;;;;;;;;23.60;64.70;;;;;;5043226;28;19917;-77
2022/10/28 07:07:03;;;;;;;;;;;23.60;65.10;;;;;;5049943;28;19913;-78
2022/10/28 07:09:30;;;;;;;;;;;23.60;64.40;;;;;;5043278;28;19963;-78
2022/10/28 07:11:56;;;;;;;;;;;23.50;64.30;;;;;;5034874;28;19921;-77
2022/10/28 07:14:23;;;;;;;;;;;23.30;64.80;;;;;;5044661;28;19913;-78
2022/10/28 07:16:50;;;;;;;;;;;23.30;65.50;;;;;;5035134;28;20000;-77
2022/10/28 07:19:16;;;;;;;;;;;23.20;65.10;;;;;;5043833;28;19920;-75
2022/10/28 07:21:43;;;;;;;;;;;23.20;64.50;;;;;;5054981;28;19935;-79
2022/10/28 07:24:10;;;;;;;;;;;23.20;64.60;;;;;;5052991;28;19913;-78
2022/10/28 07:26:36;;;;;;;;;;;23.00;64.10;;;;;;5054062;28;20251;-79
2022/10/28 07:29:03;;;;;;;;;;;22.90;64.30;;;;;;5047143;28;20428;-76
2022/10/28 07:31:30;;;;;;;;;;;22.70;64.60;;;;;;5044910;28;19972;-75
2022/10/28 07:33:56;;;;;;;;;;;22.60;65.00;;;;;;5048209;28;19917;-76
2022/10/28 07:36:23;;;;;;;;;;;22.50;65.20;;;;;;5034744;28;20331;-75
2022/10/28 07:38:51;;;;;;;;;;;22.30;65.60;;;;;;5047457;28;20311;-76
2022/10/28 07:41:19;;;;;;;;;;;22.20;65.00;;;;;;5034760;28;19913;-77
2022/10/28 07:43:45;;;;;;;;;;;22.20;65.40;;;;;;5035228;28;19928;-75
2022/10/28 07:46:12;;;;;;;;;;;22.10;65.30;;;;;;5034500;28;19909;-76
2022/10/28 07:48:39;;;;;;;;;;;21.90;65.60;;;;;;5045742;28;19917;-77
2022/10/28 07:51:07;;;;;;;;;;;21.80;66.10;;;;;;5044955;28;19920;-75
2022/10/28 07:53:34;;;;;;;;;;;21.70;66.30;;;;;;5052521;28;20398;-78
2022/10/28 07:56:05;;;;;;;;;;;21.60;66.80;;;;;;5054089;28;19909;-77
2022/10/28 07:58:31;;;;;;;;;;;21.50;66.60;;;;;;5051561;28;19966;-78
2022/10/28 08:01:05;;;;;;;;;;;21.50;67.00;;;;;;5034306;28;19909;-77
2022/10/28 08:03:32;;;;;;;;;;;21.40;66.70;;;;;;5043438;28;19995;-75
2022/10/28 08:06:18;;;;;;;;;;;21.30;66.90;;;;;;5053606;28;19958;-76
2022/10/28 08:08:52;;;;;;;;;;;21.20;67.30;;;;;;5049451;28;19964;-77
2022/10/28 08:11:21;;;;;;;;;;;21.10;67.70;;;;;;5034186;28;19921;-77
2022/10/28 08:13:48;;;;;;;;;;;21.00;68.80;;;;;;5034677;28;19909;-76
2022/10/28 08:16:14;;;;;;;;;;;20.90;68.00;;;;;;5035867;28;20248;-77
2022/10/28 08:18:41;;;;;;;;;;;20.90;68.50;;;;;;5049862;28;19979;-79
2022/10/28 08:21:09;;;;;;;;;;;20.80;68.50;;;;;;5041362;28;19956;-79
2022/10/28 08:23:37;;;;;;;;;;;20.80;68.30;;;;;;5052659;28;20410;-70
2022/10/28 08:26:04;;;;;;;;;;;20.70;68.70;;;;;;5052554;28;19979;-74
2022/10/28 08:28:30;;;;;;;;;;;20.60;69.30;;;;;;5050104;28;20008;-71
2022/10/28 08:31:01;;;;;;;;;;;20.60;69.40;;;;;;5038876;28;19932;-71
2022/10/28 08:33:28;;;;;;;;;;;20.40;69.40;;;;;;5036346;28;19921;-69
2022/10/28 08:35:54;;;;;;;;;;;20.40;69.60;;;;;;5039176;28;19999;-71
2022/10/28 08:38:21;;;;;;;;;;;20.40;69.90;;;;;;5044051;28;19913;-70
2022/10/28 08:40:57;;;;;;;;;;;20.40;70.00;;;;;;5053339;28;20220;-71
2022/10/28 08:43:28;;;;;;;;;;;20.30;70.10;;;;;;5051813;28;19959;-69
2022/10/28 08:46:03;;;;;;;;;;;20.20;70.40;;;;;;5033321;28;19996;-70
2022/10/28 08:48:32;;;;;;;;;;;20.20;70.60;;;;;;5034984;28;19921;-73
2022/10/28 08:51:03;;;;;;;;;;;20.20;70.80;;;;;;5033619;28;20019;-70
2022/10/28 08:53:36;;;;;;;;;;;20.10;71.30;;;;;;5052080;28;19920;-70
2022/10/28 08:56:13;;;;;;;;;;;20.00;71.40;;;;;;5052759;28;19916;-73
2022/10/28 08:58:41;;;;;;;;;;;19.90;71.50;;;;;;5040821;28;19917;-71
2022/10/28 09:01:12;;;;;;;;;;;19.90;71.90;;;;;;5033218;28;20067;-73
2022/10/28 09:03:41;;;;;;;;;;;19.80;72.30;;;;;;5034011;28;19920;-71
2022/10/28 09:06:09;;;;;;;;;;;19.70;72.30;;;;;;5032894;28;19913;-71
2022/10/28 09:08:38;;;;;;;;;;;19.70;72.60;;;;;;5033821;28;19916;-73
2022/10/28 09:11:05;;;;;;;;;;;19.70;72.40;;;;;;5033034;28;19917;-73
2022/10/28 09:13:50;;;;;;;;;;;19.70;72.30;;;;;;5045916;28;19986;-70
2022/10/28 09:16:35;;;;;;;;;;;19.70;72.60;;;;;;5033135;28;19913;-71
2022/10/28 09:19:04;;;;;;;;;;;19.60;73.00;;;;;;5033658;28;19959;-72
2022/10/28 09:22:00;;;;;;;;;;;19.50;72.60;;;;;;5032698;28;19909;-73
2022/10/28 09:24:41;;;;;;;;;;;19.60;72.80;;;;;;5025851;28;19941;-72
2022/10/28 09:27:14;;;;;;;;;;;19.50;72.80;;;;;;5032023;28;19921;-72
2022/10/28 09:29:53;;;;;;;;;;;19.50;73.00;;;;;;5041828;28;19924;-70
2022/10/28 09:32:28;;;;;;;;;;;19.50;73.10;;;;;;5049005;28;19924;-72
2022/10/28 09:35:00;;;;;;;;;;;19.40;73.00;;;;;;5032791;28;20276;-71
2022/10/28 09:37:32;;;;;;;;;;;19.50;72.90;;;;;;5043591;28;19956;-74
2022/10/28 09:40:01;;;;;;;;;;;19.40;72.80;;;;;;5036823;28;19924;-72
2022/10/28 09:42:30;;;;;;;;;;;19.40;73.10;;;;;;5032044;28;19954;-70
2022/10/28 09:44:58;;;;;;;;;;;19.40;73.10;;;;;;5032650;28;20264;-72
2022/10/28 09:47:29;;;;;;;;;;;19.40;73.70;;;;;;5047147;28;19913;-71
2022/10/28 09:49:58;;;;;;;;;;;19.40;73.80;;;;;;5037035;28;19971;-71
2022/10/28 09:52:28;;;;;;;;;;;19.40;74.00;;;;;;5031994;28;19928;-69
2022/10/28 09:54:55;;;;;;;;;;;19.30;74.70;;;;;;5037055;28;20295;-69
2022/10/28 09:57:24;;;;;;;;;;;19.30;74.40;;;;;;5031732;28;19909;-78
2022/10/28 09:59:50;;;;;;;;;;;19.20;74.40;;;;;;5044145;28;19917;-72
2022/10/28 10:02:28;;;;;;;;;;;19.10;74.90;;;;;;5051658;28;19913;-72
2022/10/28 10:04:56;;;;;;;;;;;19.10;74.70;;;;;;5037369;28;19913;-73
2022/10/28 10:07:28;;;;;;;;;;;19.00;74.90;;;;;;5031608;28;20379;-72
2022/10/28 10:09:55;;;;;;;;;;;19.00;75.10;;;;;;5033335;28;19921;-74
2022/10/28 10:12:22;;;;;;;;;;;19.00;75.30;;;;;;5053187;28;19917;-74
2022/10/28 10:14:51;;;;;;;;;;;19.00;75.00;;;;;;5042192;28;19920;-73
2022/10/28 10:17:20;;;;;;;;;;;18.90;75.40;;;;;;5052320;28;19979;-72
2022/10/28 10:20:05;;;;;;;;;;;18.90;75.70;;;;;;5044083;28;19927;-73
2022/10/28 10:22:36;;;;;;;;;;;18.80;76.00;;;;;;5038400;28;22236;-72
2022/10/28 10:25:03;;;;;;;;;;;18.70;76.40;;;;;;5053453;28;19912;-72
2022/10/28 10:27:31;;;;;;;;;;;18.60;76.40;;;;;;5053635;28;19971;-77
2022/10/28 10:29:58;;;;;;;;;;;18.60;76.40;;;;;;5053072;28;19973;-70
2022/10/28 10:32:29;;;;;;;;;;;18.60;76.50;;;;;;5055292;28;19916;-69
2022/10/28 10:35:15;;;;;;;;;;;18.60;76.20;;;;;;5040819;28;19999;-70
2022/10/28 10:37:44;;;;;;;;;;;18.60;76.60;;;;;;5044359;28;19913;-73
2022/10/28 10:40:30;;;;;;;;;;;18.60;76.70;;;;;;5038378;28;19991;-75
2022/10/28 10:43:17;;;;;;;;;;;18.60;76.80;;;;;;5054173;28;20537;-76
2022/10/28 10:46:03;;;;;;;;;;;18.60;76.80;;;;;;5040300;28;19943;-71
2022/10/28 10:48:35;;;;;;;;;;;18.60;76.80;;;;;;5051802;28;19917;-73
2022/10/28 10:51:16;;;;;;;;;;;18.50;77.00;;;;;;5034838;28;19917;-74
2022/10/28 10:53:47;;;;;;;;;;;18.50;77.30;;;;;;5036942;28;19924;-71
2022/10/28 10:56:22;;;;;;;;;;;18.50;77.30;;;;;;5052511;28;19938;-71
2022/10/28 10:58:51;;;;;;;;;;;18.40;77.60;;;;;;5041152;28;20648;-70
2022/10/28 11:01:20;;;;;;;;;;;18.30;77.60;;;;;;5053345;28;19921;-73
2022/10/28 11:03:49;;;;;;;;;;;18.30;77.50;;;;;;5035614;28;20382;-74
2022/10/28 11:06:34;;;;;;;;;;;18.40;77.40;;;;;;5034736;28;19913;-70
2022/10/28 11:09:02;;;;;;;;;;;18.30;77.60;;;;;;5036164;28;19999;-69
2022/10/28 11:11:34;;;;;;;;;;;18.30;77.70;;;;;;5053047;28;20007;-70
2022/10/28 11:14:18;;;;;;;;;;;18.30;77.70;;;;;;5046507;28;19917;-72
2022/10/28 11:16:52;;;;;;;;;;;18.30;77.80;;;;;;5034625;28;19913;-70
2022/10/28 11:19:23;;;;;;;;;;;18.20;77.90;;;;;;5043562;28;20322;-70
2022/10/28 11:21:58;;;;;;;;;;;18.30;77.70;;;;;;5054059;28;19913;-73
2022/10/28 11:24:29;;;;;;;;;;;18.30;78.00;;;;;;5043635;28;20233;-73
2022/10/28 11:27:11;;;;;;;;;;;18.20;78.10;;;;;;5001770;28;20003;-70
2022/10/28 11:29:38;;;;;;;;;;;18.20;77.90;;;;;;4998866;28;19925;-72
2022/10/28 11:32:14;;;;;;;;;;;18.20;78.20;;;;;;4994889;28;20242;-75
2022/10/28 11:34:46;;;;;;;;;;;18.10;78.50;;;;;;4995776;28;19913;-78
2022/10/28 11:37:25;;;;;;;;;;;18.10;78.50;;;;;;4994536;28;19956;-70
2022/10/28 11:40:06;;;;;;;;;;;18.10;78.90;;;;;;4994053;28;20015;-71
2022/10/28 11:42:41;;;;;;;;;;;18.00;79.10;;;;;;4994500;28;19918;-75
2022/10/28 11:45:16;;;;;;;;;;;17.90;79.60;;;;;;5019543;28;20004;-74
2022/10/28 11:47:52;;;;;;;;;;;17.90;80.00;;;;;;5013340;28;19909;-69
2022/10/28 11:50:31;;;;;;;;;;;17.80;79.90;;;;;;4995914;28;20327;-72
2022/10/28 11:53:24;;;;;;;;;;;17.80;80.00;;;;;;4994343;28;19917;-71
2022/10/28 11:55:58;;;;;;;;;;;17.80;80.20;;;;;;4993035;28;19960;-69
2022/10/28 11:58:42;;;;;;;;;;;17.80;80.60;;;;;;4996885;28;19921;-76
2022/10/28 12:01:18;;;;;;;;;;;17.70;80.70;;;;;;5005818;28;19914;-75
2022/10/28 12:04:03;;;;;;;;;;;17.70;81.00;;;;;;5007957;28;19914;-69
2022/10/28 12:06:39;;;;;;;;;;;17.60;81.20;;;;;;4994754;28;20353;-70
2022/10/28 12:09:08;;;;;;;;;;;17.50;81.30;;;;;;4995356;28;19968;-69
2022/10/28 12:11:52;;;;;;;;;;;17.50;81.70;;;;;;4994724;28;19914;-72
2022/10/28 12:14:24;;;;;;;;;;;17.50;82.00;;;;;;4995598;28;20282;-71
2022/10/28 12:17:02;;;;;;;;;;;17.40;81.70;;;;;;5001159;28;19920;-76
2022/10/28 12:19:31;;;;;;;;;;;17.40;82.30;;;;;;5009880;28;19917;-69
2022/10/28 12:21:58;;;;;;;;;;;17.30;82.50;;;;;;5013033;28;20063;-69
2022/10/28 12:24:26;;;;;;;;;;;17.40;82.50;;;;;;5012987;28;19914;-70
2022/10/28 12:27:01;;;;;;;;;;;17.40;82.60;;;;;;5045880;28;20379;-69
2022/10/28 12:29:36;;;;;;;;;;;17.40;82.70;;;;;;5052657;28;19917;-70
2022/10/28 12:32:25;;;;;;;;;;;17.30;82.60;;;;;;5052710;28;19909;-70
2022/10/28 12:35:01;;;;;;;;;;;17.30;83.00;;;;;;5037644;28;19913;-72
2022/10/28 12:37:32;;;;;;;;;;;17.20;83.10;;;;;;5053294;28;20011;-70
2022/10/28 12:39:59;;;;;;;;;;;17.20;83.40;;;;;;5038392;28;19913;-71
2022/10/28 12:42:34;;;;;;;;;;;17.10;83.70;;;;;;5033612;28;19936;-70
2022/10/28 12:45:04;;;;;;;;;;;17.10;83.40;;;;;;5034206;28;19913;-69
2022/10/28 12:47:53;;;;;;;;;;;17.20;82.90;;;;;;5033048;28;19948;-69
2022/10/28 12:50:23;;;;;;;;;;;17.20;83.30;;;;;;5010510;28;19925;-70
2022/10/28 12:52:50;;;;;;;;;;;17.30;83.10;;;;;;5035319;28;19920;-72
2022/10/28 12:55:17;;;;;;;;;;;17.20;82.90;;;;;;5050746;28;20282;-70
2022/10/28 12:57:46;;;;;;;;;;;17.30;83.30;;;;;;5052634;28;20419;-71
2022/10/28 13:00:19;;;;;;;;;;;17.30;82.90;;;;;;5036101;28;19913;-73
2022/10/28 13:03:02;;;;;;;;;;;17.40;83.00;;;;;;5032108;28;19909;-69
2022/10/28 13:05:52;;;;;;;;;;;17.50;82.60;;;;;;5032268;28;19917;-68
2022/10/28 13:08:37;;;;;;;;;;;17.60;82.80;;;;;;4987008;28;19913;-70
2022/10/28 13:11:33;;;;;;;;;;;17.60;82.70;;;;;;5043691;28;19924;-71
2022/10/28 13:14:13;;;;;;;;;;;17.70;82.50;;;;;;5031584;28;19912;-71
2022/10/28 13:16:40;;;;;;;;;;;17.70;82.20;;;;;;5031740;28;19917;-72
2022/10/28 13:19:12;;;;;;;;;;;17.80;82.10;;;;;;5039759;28;19935;-74
2022/10/28 13:21:57;;;;;;;;;;;17.80;81.90;;;;;;5051663;28;19912;-69
2022/10/28 13:24:28;;;;;;;;;;;17.90;82.10;;;;;;5042619;28;20024;-70
2022/10/28 13:26:55;;;;;;;;;;;17.90;81.90;;;;;;5035274;28;20290;-72
2022/10/28 13:29:26;;;;;;;;;;;17.90;82.00;;;;;;5041957;28;20000;-69
2022/10/28 13:31:53;;;;;;;;;;;17.90;82.70;;;;;;5046055;28;19920;-69
2022/10/28 13:34:22;;;;;;;;;;;17.80;82.80;;;;;;5043056;28;19913;-70
2022/10/28 13:36:59;;;;;;;;;;;17.70;83.10;;;;;;5038788;28;20401;-70
2022/10/28 13:39:31;;;;;;;;;;;17.70;83.10;;;;;;5033453;28;20313;-69
2022/10/28 13:42:22;;;;;;;;;;;17.60;83.30;;;;;;5032396;28;19913;-69
2022/10/28 13:44:54;;;;;;;;;;;17.60;83.60;;;;;;5017466;28;20283;-69
2022/10/28 13:47:24;;;;;;;;;;;17.60;83.30;;;;;;5051736;28;20275;-69
2022/10/28 13:50:06;;;;;;;;;;;17.60;83.50;;;;;;5038490;28;20561;-69
2022/10/28 13:52:39;;;;;;;;;;;17.60;83.60;;;;;;5036818;28;19924;-70
2022/10/28 13:55:24;;;;;;;;;;;17.60;83.70;;;;;;5045890;28;19913;-71
2022/10/28 13:58:02;;;;;;;;;;;17.60;84.10;;;;;;5052091;28;20375;-70
2022/10/28 14:00:28;;;;;;;;;;;17.60;84.10;;;;;;5033416;28;19913;-69
2022/10/28 14:02:58;;;;;;;;;;;17.60;84.40;;;;;;5050707;28;19992;-70
2022/10/28 14:05:37;;;;;;;;;;;17.60;84.30;;;;;;5050262;28;20007;-69
2022/10/28 14:08:05;;;;;;;;;;;17.60;84.70;;;;;;5050935;28;19913;-69
2022/10/28 14:10:33;;;;;;;;;;;17.60;84.50;;;;;;5035249;28;20118;-70
2022/10/28 14:13:04;;;;;;;;;;;17.60;84.40;;;;;;5051295;28;19917;-70
2022/10/28 14:15:37;;;;;;;;;;;17.60;84.70;;;;;;5051637;28;19912;-70
2022/10/28 14:18:04;;;;;;;;;;;17.70;84.10;;;;;;5050684;28;19908;-70
2022/10/28 14:20:34;;;;;;;;;;;17.80;84.20;;;;;;5050145;28;19924;-69
2022/10/28 14:23:20;;;;;;;;;;;17.80;84.10;;;;;;5052016;28;20398;-71
2022/10/28 14:25:50;;;;;;;;;;;17.80;84.10;;;;;;5031729;28;19956;-69
2022/10/28 14:28:28;;;;;;;;;;;17.80;84.20;;;;;;5032906;28;19909;-70
2022/10/28 14:31:10;;;;;;;;;;;17.80;84.10;;;;;;5051953;28;20278;-70
2022/10/28 14:33:40;;;;;;;;;;;17.80;84.30;;;;;;5051086;28;19917;-70
2022/10/28 14:36:11;;;;;;;;;;;17.80;84.20;;;;;;5046566;28;20489;-71